createdAt,value
2023-04-10T00:01:39.466Z,9.30
2023-04-10T00:04:10.877Z,11.02
2023-04-10T00:06:42.887Z,8.88
2023-04-10T00:09:14.577Z,11.25
2023-04-10T00:11:43.878Z,11.90
2023-04-10T00:14:15.700Z,10.30
2023-04-10T00:16:45.215Z,12.88
2023-04-10T00:19:14.391Z,13.38
2023-04-10T00:21:43.992Z,11.38
2023-04-10T00:24:14.730Z,12.18
2023-04-10T00:26:43.798Z,10.77
2023-04-10T00:29:13.006Z,12.27
2023-04-10T00:31:42.257Z,11.30
2023-04-10T00:34:12.037Z,10.02
2023-04-10T00:36:41.333Z,11.15
2023-04-10T00:39:15.554Z,11.65
2023-04-10T00:41:48.658Z,9.90
2023-04-10T00:44:17.846Z,10.27
2023-04-10T00:46:46.973Z,10.63
2023-04-10T00:49:16.017Z,11.77
2023-04-10T00:51:45.834Z,12.23
2023-04-10T00:54:16.653Z,10.35
2023-04-10T00:56:47.496Z,14.18
2023-04-10T00:59:17.131Z,11.02
2023-04-10T01:01:46.578Z,11.35
2023-04-10T01:04:17.001Z,12.02
2023-04-10T01:06:55.716Z,12.43
2023-04-10T01:09:40.230Z,14.98
2023-04-10T01:15:05.922Z,12.75
2023-04-10T01:17:42.264Z,14.25
2023-04-10T01:20:15.848Z,14.15
2023-04-10T01:23:01.472Z,12.02
2023-04-10T01:25:45.249Z,12.50
2023-04-10T01:28:34.811Z,13.68
2023-04-10T01:31:07.809Z,13.48
2023-04-10T01:33:42.137Z,15.15
2023-04-10T01:36:13.402Z,14.57
2023-04-10T01:38:44.944Z,13.80
2023-04-10T01:41:15.185Z,14.32
2023-04-10T01:43:44.672Z,14.18
2023-04-10T01:46:15.880Z,14.38
2023-04-10T01:48:46.436Z,16.00
2023-04-10T01:51:16.864Z,12.05
2023-04-10T01:53:49.002Z,14.32
2023-04-10T01:56:24.250Z,12.35
2023-04-10T01:58:53.647Z,13.85
2023-04-10T02:01:29.814Z,14.65
2023-04-10T02:04:00.456Z,12.98
2023-04-10T02:06:41.118Z,13.90
2023-04-10T02:09:22.091Z,15.65
2023-04-10T02:11:57.117Z,13.23
2023-04-10T02:14:29.744Z,14.68
2023-04-10T02:17:02.723Z,13.00
2023-04-10T02:19:33.361Z,17.80
2023-04-10T02:22:03.050Z,14.00
2023-04-10T02:24:33.993Z,14.38
2023-04-10T02:27:06.355Z,13.35
2023-04-10T02:29:49.089Z,13.68
2023-04-10T02:32:19.752Z,11.13
2023-04-10T02:34:48.787Z,18.00
2023-04-10T02:37:17.985Z,14.98
2023-04-10T02:39:47.141Z,12.15
2023-04-10T02:42:16.856Z,18.23
2023-04-10T02:44:46.475Z,14.43
2023-04-10T02:47:16.233Z,15.35
2023-04-10T02:49:49.516Z,15.55
2023-04-10T02:52:19.858Z,16.83
2023-04-10T02:54:49.081Z,16.50
2023-04-10T02:57:21.575Z,13.35
2023-04-10T02:59:52.273Z,13.68
2023-04-10T03:02:23.108Z,17.48
2023-04-10T03:04:56.725Z,15.13
2023-04-10T03:07:26.120Z,13.95
2023-04-10T03:09:56.293Z,13.80
2023-04-10T03:12:25.546Z,16.15
2023-04-10T03:14:54.655Z,16.60
2023-04-10T03:17:23.763Z,14.45
2023-04-10T03:19:54.871Z,13.18
2023-04-10T03:22:24.644Z,13.82
2023-04-10T03:24:54.186Z,17.45
2023-04-10T03:27:26.458Z,16.15
2023-04-10T03:29:55.668Z,13.95
2023-04-10T03:32:24.796Z,16.83
2023-04-10T03:34:55.993Z,15.13
2023-04-10T03:37:25.801Z,13.90
2023-04-10T03:39:57.660Z,14.60
2023-04-10T03:42:27.154Z,13.95
2023-04-10T03:44:57.612Z,12.70
2023-04-10T03:47:27.271Z,16.02
2023-04-10T03:49:57.855Z,14.25
2023-04-10T03:52:28.783Z,16.48
2023-04-10T03:55:01.481Z,12.75
2023-04-10T03:57:31.052Z,14.15
2023-04-10T04:00:05.948Z,13.30
2023-04-10T04:02:51.037Z,12.15
2023-04-10T04:05:36.977Z,14.27
2023-04-10T04:08:41.822Z,13.55
2023-04-10T04:11:34.159Z,17.35
2023-04-10T04:14:07.213Z,12.35
2023-04-10T04:17:15.826Z,15.73
2023-04-10T04:20:16.045Z,16.15
2023-04-10T04:23:19.462Z,14.07
2023-04-10T04:26:09.704Z,15.90
2023-04-10T04:28:58.430Z,14.50
2023-04-10T04:32:03.482Z,17.23
2023-04-10T04:34:54.756Z,18.00
2023-04-10T04:37:33.689Z,14.55
2023-04-10T04:40:22.750Z,15.75
2023-04-10T04:43:33.117Z,16.25
2023-04-10T04:46:09.447Z,17.77
2023-04-10T04:48:57.117Z,19.73
2023-04-10T04:51:51.793Z,17.80
2023-04-10T04:54:50.253Z,16.80
2023-04-10T04:57:48.537Z,13.38
2023-04-10T05:00:34.265Z,15.50
2023-04-10T05:03:29.610Z,13.57
2023-04-10T05:06:18.897Z,15.35
2023-04-10T05:09:09.424Z,15.85
2023-04-10T05:12:04.049Z,19.80
2023-04-10T05:14:58.996Z,13.88
2023-04-10T05:17:54.849Z,16.00
2023-04-10T05:20:50.812Z,17.80
2023-04-10T05:23:39.769Z,16.50
2023-04-10T05:26:25.896Z,15.45
2023-04-10T05:29:06.645Z,12.25
2023-04-10T05:31:56.081Z,15.80
2023-04-10T05:34:48.280Z,18.05
2023-04-10T05:37:34.689Z,12.48
2023-04-10T05:40:36.381Z,17.88
2023-04-10T05:43:24.366Z,15.45
2023-04-10T05:46:01.774Z,12.20
2023-04-10T05:48:53.329Z,15.57
2023-04-10T05:51:39.603Z,15.45
2023-04-10T05:54:21.235Z,13.70
2023-04-10T05:57:12.331Z,15.00
2023-04-10T06:00:02.568Z,12.82
2023-04-10T06:02:46.458Z,14.88
2023-04-10T06:05:26.080Z,12.57
2023-04-10T06:08:01.503Z,13.20
2023-04-10T06:10:31.796Z,13.25
2023-04-10T06:13:01.950Z,12.38
2023-04-10T06:15:33.216Z,11.95
2023-04-10T06:18:02.536Z,13.88
2023-04-10T06:20:33.698Z,13.93
2023-04-10T06:23:04.001Z,14.13
2023-04-10T06:25:33.302Z,12.30
2023-04-10T06:28:02.846Z,14.40
2023-04-10T06:30:34.710Z,12.82
2023-04-10T06:33:04.858Z,11.20
2023-04-10T06:35:38.802Z,13.15
2023-04-10T06:38:09.053Z,12.15
2023-04-10T06:40:39.403Z,11.57
2023-04-10T06:43:09.013Z,13.02
2023-04-10T06:45:43.270Z,10.43
2023-04-10T06:48:13.404Z,15.07
2023-04-10T06:50:46.950Z,12.82
2023-04-10T06:53:18.766Z,14.23
2023-04-10T06:55:48.317Z,13.25
2023-04-10T06:58:17.785Z,25.00
2023-04-10T07:00:47.369Z,17.75
2023-04-10T07:03:16.660Z,15.63
2023-04-10T08:15:04.853Z,10.38
2023-04-10T08:17:37.961Z,11.15
2023-04-10T08:20:08.917Z,10.73
2023-04-10T08:22:42.057Z,12.50
2023-04-10T08:25:15.498Z,12.15
2023-04-10T08:27:45.269Z,12.65
2023-04-10T08:30:14.923Z,14.77
2023-04-10T08:32:44.547Z,9.98
2023-04-10T08:35:14.191Z,11.45
2023-04-10T08:37:49.632Z,9.63
2023-04-10T08:40:24.449Z,8.95
2023-04-10T08:42:54.265Z,7.40
2023-04-10T08:45:24.161Z,9.00
2023-04-10T08:47:56.645Z,7.32
2023-04-10T08:50:27.132Z,6.78
2023-04-10T08:52:57.893Z,6.25
2023-04-10T08:55:28.642Z,5.32
2023-04-10T08:58:01.530Z,6.25
2023-04-10T09:00:34.633Z,6.05
2023-04-10T09:03:05.430Z,8.10
2023-04-10T09:05:36.941Z,6.43
2023-04-10T09:08:06.230Z,5.93
2023-04-10T09:10:37.112Z,5.32
2023-04-10T09:13:06.308Z,6.07
2023-04-10T09:16:00.371Z,6.38
2023-04-10T09:21:15.378Z,6.53
2023-04-10T09:23:47.076Z,5.80
2023-04-10T09:26:28.584Z,5.35
2023-04-10T09:29:00.219Z,6.45
2023-04-10T09:31:34.297Z,5.80
2023-04-10T09:34:13.548Z,6.47
2023-04-10T09:36:43.683Z,6.05
2023-04-10T09:39:13.548Z,7.82
2023-04-10T09:41:52.512Z,6.32
2023-04-10T09:44:31.307Z,7.15
2023-04-10T09:47:01.255Z,7.80
2023-04-10T09:49:45.755Z,7.30
2023-04-10T09:52:20.591Z,8.85
2023-04-10T09:54:50.006Z,6.90
2023-04-10T09:57:24.060Z,6.40
2023-04-10T09:59:58.225Z,8.48
2023-04-10T10:02:32.714Z,10.00
2023-04-10T10:05:03.040Z,8.18
2023-04-10T10:07:33.515Z,8.73
2023-04-10T10:10:04.682Z,8.50
2023-04-10T10:12:41.835Z,5.88
2023-04-10T10:15:17.995Z,6.70
2023-04-10T10:17:55.572Z,7.47
2023-04-10T10:20:26.243Z,7.20
2023-04-10T10:22:57.287Z,5.32
2023-04-10T10:25:27.914Z,8.25
2023-04-10T10:28:04.119Z,6.93
2023-04-10T10:30:41.928Z,6.32
2023-04-10T10:33:14.330Z,6.53
2023-04-10T10:35:44.263Z,5.85
2023-04-10T10:38:14.118Z,6.68
2023-04-10T10:40:50.624Z,4.63
2023-04-10T10:43:34.308Z,6.90
2023-04-10T10:46:05.179Z,5.90
2023-04-10T10:48:34.980Z,5.25
2023-04-10T10:51:04.529Z,6.97
2023-04-10T10:53:40.372Z,6.53
2023-04-10T10:56:46.201Z,5.82
2023-04-10T10:59:17.553Z,4.32
2023-04-10T11:02:16.342Z,4.53
2023-04-10T11:04:46.402Z,4.38
2023-04-10T11:07:16.337Z,3.30
2023-04-10T11:09:52.970Z,3.25
2023-04-10T11:12:24.196Z,3.75
2023-04-10T11:15:02.206Z,4.30
2023-04-10T11:17:52.119Z,3.33
2023-04-10T11:20:27.317Z,4.30
2023-04-10T11:23:12.976Z,4.88
2023-04-10T11:25:50.401Z,3.95
2023-04-10T11:28:39.744Z,2.65
2023-04-10T11:31:19.999Z,3.97
2023-04-10T11:33:52.186Z,3.85
2023-04-10T11:36:27.349Z,3.92
2023-04-10T11:38:58.149Z,3.20
2023-04-10T11:41:32.225Z,3.53
2023-04-10T11:44:03.586Z,3.33
2023-04-10T11:46:39.332Z,3.40
2023-04-10T11:51:40.903Z,3.03
2023-04-10T11:54:11.332Z,3.05
2023-04-10T11:56:41.630Z,3.05
2023-04-10T11:59:14.478Z,3.72
2023-04-10T12:01:45.483Z,3.97
2023-04-10T12:04:23.501Z,3.63
2023-04-10T12:06:55.306Z,3.42
2023-04-10T12:09:25.154Z,6.03
2023-04-10T12:11:59.801Z,5.05
2023-04-10T12:14:33.509Z,5.10
2023-04-10T12:17:43.356Z,3.63
2023-04-10T12:20:25.018Z,5.88
2023-04-10T12:23:05.379Z,7.90
2023-04-10T12:25:39.428Z,5.60
2023-04-10T12:28:09.652Z,4.03
2023-04-10T12:30:40.414Z,6.13
2023-04-10T12:33:12.662Z,4.75
2023-04-10T12:35:44.014Z,5.73
2023-04-10T12:38:22.914Z,2.72
2023-04-10T12:41:04.980Z,4.78
2023-04-10T12:43:35.620Z,4.05
2023-04-10T12:46:18.579Z,5.35
2023-04-10T12:51:28.102Z,5.13
2023-04-10T12:53:58.162Z,6.10
2023-04-10T12:56:36.450Z,6.13
2023-04-10T12:59:10.785Z,4.68
2023-04-10T13:01:42.553Z,6.40
2023-04-10T13:04:14.283Z,6.65
2023-04-10T13:06:45.360Z,7.95
2023-04-10T13:09:15.859Z,6.60
2023-04-10T13:11:46.083Z,7.05
2023-04-10T13:14:17.091Z,10.00
2023-04-10T13:16:47.141Z,8.23
2023-04-10T13:19:17.866Z,7.70
2023-04-10T13:21:50.884Z,8.18
2023-04-10T13:24:22.752Z,9.00
2023-04-10T13:26:52.459Z,8.80
2023-04-10T13:29:26.815Z,8.00
2023-04-10T13:31:57.906Z,7.60
2023-04-10T13:34:31.409Z,8.23
2023-04-10T13:37:04.052Z,8.32
2023-04-10T13:39:35.911Z,6.85
2023-04-10T13:42:05.410Z,7.80
2023-04-10T13:44:36.309Z,10.63
2023-04-10T13:47:08.901Z,7.13
2023-04-10T13:49:41.825Z,6.53
2023-04-10T13:52:11.452Z,6.88
2023-04-10T13:55:25.511Z,7.65
2023-04-10T13:57:56.132Z,8.07
2023-04-10T14:00:25.377Z,5.50
2023-04-10T14:06:15.540Z,7.20
2023-04-10T14:08:46.313Z,5.72
2023-04-10T14:11:19.417Z,5.55
2023-04-10T14:13:52.764Z,6.00
2023-04-10T14:16:25.232Z,5.75
2023-04-10T14:18:56.437Z,6.30
2023-04-10T14:21:36.794Z,5.95
2023-04-10T14:24:10.008Z,4.82
2023-04-10T14:26:40.786Z,7.50
2023-04-10T14:29:14.755Z,4.90
2023-04-10T14:31:57.627Z,5.88
2023-04-10T14:34:32.082Z,5.27
2023-04-10T14:37:02.881Z,6.47
2023-04-10T14:39:41.464Z,5.53
2023-04-10T14:42:13.051Z,6.70
2023-04-10T14:44:43.942Z,4.53
2023-04-10T14:47:15.968Z,5.25
2023-04-10T14:49:48.201Z,3.97
2023-04-10T14:54:49.413Z,5.90
2023-04-10T14:57:21.566Z,4.43
2023-04-10T15:02:21.911Z,5.95
2023-04-10T15:04:52.886Z,3.95
2023-04-10T15:07:28.533Z,4.88
2023-04-10T15:10:01.546Z,7.25
2023-04-10T15:12:33.692Z,5.18
2023-04-10T15:15:16.173Z,6.72
2023-04-10T15:17:46.688Z,6.07
2023-04-10T15:20:21.672Z,6.22
2023-04-10T15:22:55.325Z,6.72
2023-04-10T15:25:26.989Z,14.60
2023-04-10T15:27:57.341Z,12.48
2023-04-10T15:30:28.461Z,12.63
2023-04-10T15:32:58.439Z,12.32
2023-04-10T15:35:30.525Z,13.15
2023-04-10T15:38:06.918Z,10.13
2023-04-10T15:40:39.656Z,11.88
2023-04-10T15:43:16.748Z,12.32
2023-04-10T15:45:53.056Z,10.52
2023-04-10T15:48:26.759Z,10.70
2023-04-10T15:51:00.513Z,10.15
2023-04-10T15:53:31.981Z,11.05
2023-04-10T15:56:06.363Z,9.05
2023-04-10T15:58:40.874Z,8.88
2023-04-10T16:01:19.429Z,8.50
2023-04-10T16:03:59.190Z,9.80
2023-04-10T16:06:36.739Z,8.63
2023-04-10T16:09:18.656Z,9.25
2023-04-10T16:11:57.976Z,12.30
2023-04-10T16:17:02.092Z,7.38
2023-04-10T16:19:32.614Z,9.48
2023-04-10T16:22:02.357Z,9.38
2023-04-10T16:24:35.890Z,8.75
2023-04-10T16:27:05.322Z,6.68
2023-04-10T16:29:34.593Z,7.55
2023-04-10T16:32:03.878Z,9.52
2023-04-10T16:34:33.331Z,9.60
2023-04-10T16:37:02.928Z,6.35
2023-04-10T16:39:32.014Z,8.23
2023-04-10T16:42:03.595Z,7.47
2023-04-10T16:44:33.796Z,7.78
2023-04-10T16:47:02.881Z,7.97
2023-04-10T16:49:32.204Z,8.35
2023-04-10T16:52:01.918Z,9.45
2023-04-10T16:54:31.232Z,10.35
2023-04-10T16:57:00.415Z,10.75
2023-04-10T16:59:30.834Z,11.32
2023-04-10T17:02:03.778Z,8.80
2023-04-10T17:04:32.963Z,9.52
2023-04-10T17:07:02.376Z,8.38
2023-04-10T17:09:32.097Z,10.88
2023-04-10T17:12:01.231Z,9.10
2023-04-10T17:14:33.507Z,10.93
2023-04-10T17:17:02.744Z,13.23
2023-04-10T17:19:33.048Z,13.23
2023-04-10T17:22:02.500Z,11.25
2023-04-10T17:24:31.887Z,10.57
2023-04-10T17:27:02.362Z,10.75
2023-04-10T17:29:37.354Z,13.05
2023-04-10T17:32:07.281Z,8.70
2023-04-10T17:34:38.688Z,11.85
2023-04-10T17:37:08.386Z,10.30
2023-04-10T17:39:38.570Z,7.90
2023-04-10T17:42:08.782Z,9.25
2023-04-10T17:44:39.053Z,11.80
2023-04-10T17:47:08.242Z,11.45
2023-04-10T17:49:39.736Z,9.88
2023-04-10T17:52:09.030Z,10.48
2023-04-10T17:54:45.426Z,10.40
2023-04-10T17:57:17.227Z,10.70
2023-04-10T17:59:52.376Z,11.45
2023-04-10T18:09:02.820Z,9.55
2023-04-10T18:11:33.272Z,10.40
2023-04-10T18:14:02.491Z,9.07
2023-04-10T18:16:41.876Z,11.63
2023-04-10T18:19:25.517Z,10.25
2023-04-10T18:22:57.837Z,12.98
2023-04-10T18:25:46.667Z,11.13
2023-04-10T18:29:27.858Z,9.27
2023-04-10T18:32:47.728Z,12.43
2023-04-10T18:36:07.895Z,11.85
2023-04-10T18:38:47.848Z,46.72
2023-04-10T18:41:17.117Z,19.83
2023-04-10T18:43:51.256Z,10.63
2023-04-10T18:47:03.913Z,9.68
2023-04-10T18:49:51.885Z,9.50
2023-04-10T18:52:24.759Z,11.68
2023-04-10T18:55:08.443Z,11.52
2023-04-10T18:57:38.272Z,11.70
2023-04-10T19:00:09.900Z,11.68
2023-04-10T19:02:39.406Z,13.77
2023-04-10T19:05:14.296Z,10.90
2023-04-10T19:07:56.667Z,13.40
2023-04-10T19:10:33.897Z,11.52
2023-04-10T19:13:03.932Z,14.00
2023-04-10T19:15:33.183Z,11.77
2023-04-10T19:18:03.359Z,20.02
2023-04-10T19:20:50.006Z,16.65
2023-04-10T19:23:21.305Z,16.30
2023-04-10T19:25:53.816Z,12.65
2023-04-10T19:28:26.578Z,13.52
2023-04-10T19:30:56.041Z,16.47
2023-04-10T19:33:25.665Z,12.88
2023-04-10T19:36:00.943Z,12.65
2023-04-10T19:38:30.763Z,12.52
2023-04-10T19:41:00.354Z,12.27
2023-04-10T19:43:30.297Z,15.60
2023-04-10T19:46:07.407Z,15.38
2023-04-10T19:48:44.826Z,12.90
2023-04-10T19:51:16.388Z,18.83
2023-04-10T19:53:48.117Z,16.38
2023-04-10T19:56:18.274Z,14.32
2023-04-10T19:58:48.129Z,14.30
2023-04-10T20:01:18.341Z,16.85
2023-04-10T20:03:47.740Z,16.92
2023-04-10T20:06:20.523Z,17.05
2023-04-10T20:08:49.729Z,15.45
2023-04-10T20:11:20.783Z,15.88
2023-04-10T20:13:49.969Z,16.88
2023-04-10T20:16:19.405Z,16.90
2023-04-10T20:18:48.938Z,15.13
2023-04-10T20:21:20.335Z,13.95
2023-04-10T20:23:51.753Z,14.48
2023-04-10T20:26:21.701Z,16.33
2023-04-10T20:28:55.038Z,12.95
2023-04-10T20:31:24.657Z,15.23
2023-04-10T20:33:54.766Z,15.55
2023-04-10T20:36:26.514Z,14.52
2023-04-10T20:38:56.351Z,18.45
2023-04-10T20:41:26.413Z,17.13
2023-04-10T20:43:57.516Z,16.58
2023-04-10T20:46:27.575Z,15.50
2023-04-10T20:48:59.311Z,17.10
2023-04-10T20:51:30.287Z,17.45
2023-04-10T20:53:59.590Z,19.92
2023-04-10T20:56:36.705Z,14.65
2023-04-10T20:59:13.179Z,17.15
2023-04-10T21:01:42.839Z,15.98
2023-04-10T21:04:11.996Z,17.13
2023-04-10T21:06:45.626Z,18.23
2023-04-10T21:11:43.959Z,19.73
2023-04-10T21:14:17.614Z,16.83
2023-04-10T21:16:49.726Z,17.30
2023-04-10T21:19:18.889Z,19.02
2023-04-10T21:21:49.343Z,16.70
2023-04-10T21:24:19.002Z,19.23
2023-04-10T21:26:48.304Z,15.68
2023-04-10T21:29:17.612Z,16.83
2023-04-10T21:31:47.908Z,16.45
2023-04-10T21:34:18.636Z,15.88
2023-04-10T21:36:49.519Z,17.40
2023-04-10T21:39:18.717Z,17.88
2023-04-10T21:41:47.782Z,18.48
2023-04-10T21:44:17.241Z,17.00
2023-04-10T21:46:46.626Z,19.33
2023-04-10T21:49:15.930Z,17.73
2023-04-10T21:51:45.168Z,18.77
2023-04-10T21:54:15.540Z,16.80
2023-04-10T21:56:44.828Z,16.23
2023-04-10T21:59:13.952Z,16.70
2023-04-10T22:01:46.009Z,23.80
2023-04-10T22:04:15.766Z,19.42
2023-04-10T22:06:45.028Z,17.77
2023-04-10T22:09:15.916Z,18.90
2023-04-10T22:11:45.262Z,18.15
2023-04-10T22:14:17.927Z,18.83
2023-04-10T22:16:47.987Z,19.27
2023-04-10T22:19:17.374Z,18.75
2023-04-10T22:21:46.716Z,16.15
2023-04-10T22:24:17.362Z,17.52
2023-04-10T22:26:47.085Z,17.15
2023-04-10T22:29:16.410Z,16.42
2023-04-10T22:31:46.524Z,17.33
2023-04-10T22:34:16.268Z,16.33
2023-04-10T22:36:45.462Z,16.25
2023-04-10T22:39:15.170Z,18.15
2023-04-10T22:41:45.926Z,19.75
2023-04-10T22:44:15.069Z,15.57
2023-04-10T22:46:44.379Z,19.63
2023-04-10T22:49:17.122Z,21.20
2023-04-10T22:51:56.934Z,18.67
2023-04-10T22:54:26.485Z,17.63
2023-04-10T22:56:58.118Z,16.38
2023-04-10T22:59:33.030Z,16.08
2023-04-10T23:02:04.503Z,16.40
2023-04-10T23:04:33.746Z,17.33
2023-04-10T23:07:02.896Z,16.65
2023-04-10T23:09:31.982Z,13.77
2023-04-10T23:12:02.554Z,17.60
2023-04-10T23:14:31.753Z,14.43
2023-04-10T23:17:00.844Z,16.58
2023-04-10T23:19:34.852Z,15.82
2023-04-10T23:22:07.291Z,15.52
2023-04-10T23:24:36.736Z,14.50
2023-04-10T23:27:08.130Z,14.82
2023-04-10T23:29:37.179Z,16.55
2023-04-10T23:32:08.618Z,19.35
2023-04-10T23:34:38.411Z,15.80
2023-04-10T23:37:07.769Z,15.70
2023-04-10T23:39:37.186Z,13.48
2023-04-10T23:42:08.272Z,17.58
2023-04-10T23:44:37.340Z,15.82
2023-04-10T23:47:07.311Z,17.80
2023-04-10T23:49:36.588Z,18.10
2023-04-10T23:52:06.121Z,18.67
2023-04-10T23:54:35.584Z,13.77
2023-04-10T23:57:05.360Z,15.35
2023-04-10T23:59:36.028Z,16.45
